createdAt,value
2023-04-02T00:01:38.760Z,100871.22
2023-04-02T00:04:14.676Z,100887.78
2023-04-02T00:06:46.088Z,100884.09
2023-04-02T00:09:14.451Z,100890.34
2023-04-02T00:11:49.181Z,100889.84
2023-04-02T00:14:30.820Z,100887.03
2023-04-02T00:17:02.849Z,100898.81
2023-04-02T00:19:58.149Z,100892.00
2023-04-02T00:22:29.940Z,100895.69
2023-04-02T00:25:02.869Z,100899.66
2023-04-02T00:27:32.484Z,100912.56
2023-04-02T00:30:01.235Z,100913.75
2023-04-02T00:32:32.972Z,100909.50
2023-04-02T00:35:02.163Z,100909.06
2023-04-02T00:37:39.418Z,100912.41
2023-04-02T00:40:16.722Z,100927.69
2023-04-02T00:42:46.503Z,100928.66
2023-04-02T00:45:35.444Z,100935.19
2023-04-02T00:48:24.186Z,100934.16
2023-04-02T00:50:54.626Z,100939.44
2023-04-02T00:53:29.607Z,100953.38
2023-04-02T00:55:58.830Z,100957.72
2023-04-02T00:58:35.483Z,100956.06
2023-04-02T01:01:04.726Z,100952.09
2023-04-02T01:03:36.585Z,100963.81
2023-04-02T01:06:14.236Z,100979.41
2023-04-02T01:09:03.704Z,100983.75
2023-04-02T01:11:43.813Z,100981.28
2023-04-02T01:14:14.971Z,100987.94
2023-04-02T01:16:55.178Z,100984.13
2023-04-02T01:19:58.430Z,101002.75
2023-04-02T01:22:54.962Z,100999.84
2023-04-02T01:25:40.881Z,100995.03
2023-04-02T01:28:45.709Z,101007.63
2023-04-02T01:31:16.035Z,101008.84
2023-04-02T01:33:44.722Z,101007.91
2023-04-02T01:36:54.067Z,101007.06
2023-04-02T01:39:25.552Z,101016.69
2023-04-02T01:42:13.238Z,101024.94
2023-04-02T01:44:46.765Z,101032.50
2023-04-02T01:47:18.449Z,101040.38
2023-04-02T01:49:47.376Z,101046.28
2023-04-02T01:52:18.976Z,101034.91
2023-04-02T01:54:47.754Z,101043.03
2023-04-02T01:57:16.678Z,101056.06
2023-04-02T01:59:46.191Z,101054.47
2023-04-02T02:02:15.291Z,101065.28
2023-04-02T02:04:44.142Z,101060.72
2023-04-02T02:07:20.447Z,101073.50
2023-04-02T02:09:49.692Z,101078.88
2023-04-02T02:12:18.241Z,101078.31
2023-04-02T02:14:52.078Z,101088.72
2023-04-02T02:17:28.099Z,101076.25
2023-04-02T02:20:01.077Z,101090.97
2023-04-02T02:22:33.557Z,101097.63
2023-04-02T02:25:05.411Z,101092.91
2023-04-02T02:27:42.239Z,101108.97
2023-04-02T02:30:26.067Z,101105.84
2023-04-02T02:33:26.418Z,101111.31
2023-04-02T02:36:23.023Z,101128.16
2023-04-02T02:38:55.691Z,101128.88
2023-04-02T02:41:35.839Z,101132.00
2023-04-02T02:44:06.991Z,101143.75
2023-04-02T02:46:44.997Z,101144.16
2023-04-02T02:49:18.350Z,101148.66
2023-04-02T02:51:52.646Z,101152.94
2023-04-02T02:54:21.602Z,101160.13
2023-04-02T02:56:57.055Z,101159.72
2023-04-02T02:59:26.306Z,101171.03
2023-04-02T03:01:54.836Z,101174.03
2023-04-02T03:04:25.113Z,101178.34
2023-04-02T03:06:56.099Z,101169.06
2023-04-02T03:09:52.275Z,101177.19
2023-04-02T03:12:23.629Z,101187.09
2023-04-02T03:15:23.385Z,101193.25
2023-04-02T03:18:01.771Z,101194.06
2023-04-02T03:20:58.524Z,101203.56
2023-04-02T03:23:33.529Z,101204.53
2023-04-02T03:26:18.382Z,101226.59
2023-04-02T03:28:53.385Z,101216.94
2023-04-02T03:31:45.337Z,101229.28
2023-04-02T03:34:20.321Z,101234.25
2023-04-02T03:36:57.942Z,101253.09
2023-04-02T03:39:37.478Z,101252.41
2023-04-02T03:42:14.018Z,101248.81
2023-04-02T03:44:49.597Z,101265.94
2023-04-02T03:47:27.189Z,101263.81
2023-04-02T03:50:01.339Z,101283.03
2023-04-02T03:52:31.001Z,101273.84
2023-04-02T03:55:01.785Z,101283.84
2023-04-02T03:57:38.697Z,101294.44
2023-04-02T04:00:32.547Z,101298.06
2023-04-02T04:03:24.102Z,101293.44
2023-04-02T04:06:05.791Z,101296.25
2023-04-02T04:08:42.428Z,101305.41
2023-04-02T04:11:17.002Z,101308.38
2023-04-02T04:14:03.722Z,101318.03
2023-04-02T04:16:42.854Z,101320.97
2023-04-02T04:19:21.850Z,101326.31
2023-04-02T04:21:53.980Z,101334.25
2023-04-02T04:24:27.016Z,101341.38
2023-04-02T04:27:23.300Z,101351.75
2023-04-02T04:29:58.530Z,101354.00
2023-04-02T04:32:49.892Z,101359.19
2023-04-02T04:35:39.196Z,101363.44
2023-04-02T04:38:21.725Z,101379.09
2023-04-02T04:40:56.564Z,101384.97
2023-04-02T04:43:49.888Z,101391.50
2023-04-02T04:46:27.303Z,101402.16
2023-04-02T04:48:58.810Z,101395.25
2023-04-02T04:52:05.612Z,101409.41
2023-04-02T04:54:39.301Z,101409.31
2023-04-02T04:57:23.065Z,101401.50
2023-04-02T04:59:58.693Z,101423.81
2023-04-02T05:02:35.860Z,101416.84
2023-04-02T05:05:16.588Z,101419.38
2023-04-02T05:07:51.154Z,101429.53
2023-04-02T05:10:30.414Z,101442.75
2023-04-02T05:13:07.797Z,101438.94
2023-04-02T05:15:43.495Z,101456.44
2023-04-02T05:18:28.386Z,101470.28
2023-04-02T05:21:06.844Z,101456.84
2023-04-02T05:23:39.529Z,101468.03
2023-04-02T05:26:32.697Z,101464.47
2023-04-02T05:29:26.548Z,101467.59
2023-04-02T05:32:02.176Z,101477.69
2023-04-02T05:34:37.290Z,101481.19
2023-04-02T05:37:09.156Z,101481.50
2023-04-02T05:39:37.748Z,101492.69
2023-04-02T05:42:15.762Z,101493.38
2023-04-02T05:44:56.195Z,101505.25
2023-04-02T05:47:29.382Z,101517.41
2023-04-02T05:50:07.531Z,101501.53
2023-04-02T05:52:42.408Z,101524.78
2023-04-02T05:55:16.776Z,101525.84
2023-04-02T05:58:07.047Z,101517.16
2023-04-02T06:00:42.097Z,101534.53
2023-04-02T06:03:40.375Z,101533.34
2023-04-02T06:06:52.440Z,101552.94
2023-04-02T06:09:27.533Z,101559.59
2023-04-02T06:12:15.288Z,101560.06
2023-04-02T06:14:45.691Z,101559.13
2023-04-02T06:17:19.236Z,101557.84
2023-04-02T06:19:48.401Z,101572.75
2023-04-02T06:22:23.050Z,101577.69
2023-04-02T06:25:08.758Z,101585.25
2023-04-02T06:27:41.118Z,101584.13
2023-04-02T06:30:21.244Z,101590.97
2023-04-02T06:32:49.693Z,101596.97
2023-04-02T06:35:18.347Z,101607.31
2023-04-02T06:37:49.757Z,101615.25
2023-04-02T06:40:35.537Z,101621.81
2023-04-02T06:43:13.700Z,101637.50
2023-04-02T06:45:46.406Z,101630.84
2023-04-02T06:48:17.489Z,101641.84
2023-04-02T06:50:54.946Z,101642.06
2023-04-02T06:53:34.000Z,101646.72
2023-04-02T06:56:33.491Z,101663.44
2023-04-02T06:59:04.546Z,101679.81
2023-04-02T07:01:38.588Z,101678.19
2023-04-02T07:04:08.856Z,101673.69
2023-04-02T07:06:37.375Z,101681.91
2023-04-02T07:09:06.886Z,101689.63
2023-04-02T07:11:35.701Z,101703.97
2023-04-02T07:14:04.426Z,101708.25
2023-04-02T07:16:34.279Z,101712.59
2023-04-02T07:19:04.129Z,101721.09
2023-04-02T07:21:32.621Z,101722.22
2023-04-02T07:24:01.133Z,101728.97
2023-04-02T07:26:29.646Z,101740.66
2023-04-02T07:28:58.050Z,101740.03
2023-04-02T07:31:28.262Z,101738.09
2023-04-02T07:34:00.018Z,101748.69
2023-04-02T07:36:29.583Z,101746.47
2023-04-02T07:38:58.218Z,101761.69
2023-04-02T07:41:27.584Z,101763.34
2023-04-02T07:43:56.203Z,101771.91
2023-04-02T07:46:25.754Z,101773.22
2023-04-02T07:48:54.221Z,101770.19
2023-04-02T07:51:26.576Z,101772.47
2023-04-02T07:53:56.186Z,101775.44
2023-04-02T07:56:25.420Z,101777.09
2023-04-02T07:58:54.411Z,101782.13
2023-04-02T08:01:25.908Z,101789.66
2023-04-02T08:03:56.834Z,101793.47
2023-04-02T08:06:25.666Z,101806.44
2023-04-02T08:08:54.152Z,101814.28
2023-04-02T08:11:22.534Z,101814.00
2023-04-02T08:13:52.043Z,101806.78
2023-04-02T08:16:20.624Z,101822.34
2023-04-02T08:18:49.224Z,101827.75
2023-04-02T08:21:17.785Z,101828.16
2023-04-02T08:23:46.298Z,101835.91
2023-04-02T08:26:18.738Z,101838.59
2023-04-02T08:28:47.178Z,101834.19
2023-04-02T08:31:17.179Z,101845.56
2023-04-02T08:33:46.618Z,101850.94
2023-04-02T08:36:17.510Z,101862.25
2023-04-02T08:38:46.829Z,101868.69
2023-04-02T08:41:24.561Z,101873.25
2023-04-02T08:44:01.052Z,101885.88
2023-04-02T08:46:48.316Z,101893.81
2023-04-02T08:49:23.026Z,101894.19
2023-04-02T08:51:52.095Z,101901.84
2023-04-02T08:54:43.506Z,101906.81
2023-04-02T08:57:36.665Z,101913.19
2023-04-02T09:00:16.347Z,101914.59
2023-04-02T09:02:49.341Z,101918.84
2023-04-02T09:05:24.188Z,101923.84
2023-04-02T09:07:55.075Z,101933.09
2023-04-02T09:10:32.140Z,101932.47
2023-04-02T09:13:02.713Z,101931.63
2023-04-02T09:15:34.741Z,101945.97
2023-04-02T09:18:12.772Z,101948.09
2023-04-02T09:20:41.577Z,101959.84
2023-04-02T09:23:23.945Z,101957.19
2023-04-02T09:26:03.537Z,101962.38
2023-04-02T09:28:32.536Z,101966.22
2023-04-02T09:31:22.317Z,101980.13
2023-04-02T09:33:51.705Z,101990.25
2023-04-02T09:36:34.639Z,101988.91
2023-04-02T09:39:17.113Z,101991.00
2023-04-02T09:41:55.773Z,101991.78
2023-04-02T09:44:33.998Z,102000.78
2023-04-02T09:47:06.547Z,101992.72
2023-04-02T09:49:37.809Z,102016.06
2023-04-02T09:52:27.368Z,102011.38
2023-04-02T09:55:21.966Z,102021.72
2023-04-02T09:57:51.957Z,102016.31
2023-04-02T10:00:31.359Z,102037.00
2023-04-02T10:03:20.161Z,102033.81
2023-04-02T10:05:49.253Z,102038.47
2023-04-02T10:08:28.075Z,102031.88
2023-04-02T10:11:00.533Z,102031.91
2023-04-02T10:13:37.027Z,102040.91
2023-04-02T10:16:17.602Z,102042.72
2023-04-02T10:18:58.727Z,102049.44
2023-04-02T10:21:38.563Z,102047.06
2023-04-02T10:24:15.700Z,102049.09
2023-04-02T10:27:09.867Z,102062.25
2023-04-02T10:30:13.418Z,102058.59
2023-04-02T10:33:05.680Z,102072.19
2023-04-02T10:35:57.326Z,102085.06
2023-04-02T10:38:51.240Z,102086.44
2023-04-02T10:41:34.397Z,102102.03
2023-04-02T10:44:39.545Z,102095.94
2023-04-02T10:47:32.223Z,102099.50
2023-04-02T10:50:11.382Z,102102.91
2023-04-02T10:52:48.521Z,102105.94
2023-04-02T10:55:22.131Z,102105.06
2023-04-02T10:57:54.080Z,102118.34
2023-04-02T11:00:27.810Z,102105.00
2023-04-02T11:03:13.304Z,102110.50
2023-04-02T11:05:46.394Z,102118.78
2023-04-02T11:08:38.170Z,102120.91
2023-04-02T11:11:14.688Z,102123.69
2023-04-02T11:13:48.061Z,102132.22
2023-04-02T11:16:16.946Z,102138.63
2023-04-02T11:19:10.420Z,102143.63
2023-04-02T11:21:59.295Z,102148.34
2023-04-02T11:24:36.828Z,102157.00
2023-04-02T11:27:08.054Z,102162.28
2023-04-02T11:29:41.032Z,102167.88
2023-04-02T11:32:21.909Z,102164.50
2023-04-02T11:35:02.987Z,102165.41
2023-04-02T11:37:36.103Z,102167.13
2023-04-02T11:40:10.718Z,102172.47
2023-04-02T11:42:44.726Z,102172.38
2023-04-02T11:45:28.216Z,102177.94
2023-04-02T11:47:59.819Z,102189.06
2023-04-02T11:50:30.334Z,102176.81
2023-04-02T11:53:11.468Z,102183.09
2023-04-02T11:56:06.326Z,102193.41
2023-04-02T11:58:49.980Z,102188.59
2023-04-02T12:01:43.933Z,102198.06
2023-04-02T12:04:27.638Z,102198.97
2023-04-02T12:07:04.963Z,102201.16
2023-04-02T12:09:49.646Z,102212.22
2023-04-02T12:12:24.347Z,102217.97
2023-04-02T12:14:57.630Z,102227.19
2023-04-02T12:17:34.078Z,102229.97
2023-04-02T12:20:20.577Z,102227.47
2023-04-02T12:22:52.897Z,102234.53
2023-04-02T12:25:24.540Z,102239.47
2023-04-02T12:28:09.485Z,102250.34
2023-04-02T12:30:38.866Z,102247.66
2023-04-02T12:33:19.472Z,102246.44
2023-04-02T12:35:51.191Z,102263.66
2023-04-02T12:38:27.910Z,102255.50
2023-04-02T12:41:05.865Z,102258.66
2023-04-02T12:43:37.949Z,102256.84
2023-04-02T12:46:09.032Z,102266.22
2023-04-02T12:48:38.306Z,102260.88
2023-04-02T12:51:07.253Z,102273.72
2023-04-02T12:53:39.172Z,102266.44
2023-04-02T12:56:08.353Z,102273.44
2023-04-02T12:58:40.886Z,102267.22
2023-04-02T13:01:21.253Z,102264.63
2023-04-02T13:04:12.192Z,102275.34
2023-04-02T13:06:49.415Z,102278.19
2023-04-02T13:09:35.766Z,102288.91
2023-04-02T13:12:04.553Z,102287.03
2023-04-02T13:14:33.128Z,102286.66
2023-04-02T13:17:01.659Z,102300.19
2023-04-02T13:19:34.253Z,102292.16
2023-04-02T13:22:04.185Z,102291.09
2023-04-02T13:24:33.715Z,102292.75
2023-04-02T13:27:03.262Z,102304.72
2023-04-02T13:29:36.264Z,102292.53
2023-04-02T13:32:12.914Z,102296.38
2023-04-02T13:34:41.495Z,102299.16
2023-04-02T13:37:12.690Z,102296.59
2023-04-02T13:39:41.100Z,102288.38
2023-04-02T13:42:11.668Z,102291.63
2023-04-02T13:44:40.198Z,102303.97
2023-04-02T13:47:14.004Z,102303.66
2023-04-02T13:49:42.374Z,102302.75
2023-04-02T13:52:15.537Z,102306.66
2023-04-02T13:54:54.207Z,102303.72
2023-04-02T13:57:22.774Z,102310.19
2023-04-02T13:59:51.238Z,102318.25
2023-04-02T14:02:24.284Z,102323.78
2023-04-02T14:05:12.335Z,102312.06
2023-04-02T14:08:18.668Z,102320.16
2023-04-02T14:10:53.122Z,102319.25
2023-04-02T14:13:43.501Z,102314.78
2023-04-02T14:16:44.571Z,102322.91
2023-04-02T14:19:31.250Z,102318.25
2023-04-02T14:22:42.317Z,102323.50
2023-04-02T14:25:21.764Z,102332.88
2023-04-02T14:27:56.096Z,102324.72
2023-04-02T14:30:56.931Z,102328.09
2023-04-02T14:33:43.482Z,102338.72
2023-04-02T14:36:19.110Z,102339.59
2023-04-02T14:38:56.722Z,102351.53
2023-04-02T14:41:46.152Z,102344.09
2023-04-02T14:44:16.665Z,102348.97
2023-04-02T14:46:47.070Z,102347.06
2023-04-02T14:49:31.628Z,102351.59
2023-04-02T14:52:04.626Z,102353.31
2023-04-02T14:54:37.650Z,102361.47
2023-04-02T14:57:51.850Z,102353.56
2023-04-02T15:00:20.882Z,102355.06
2023-04-02T15:02:56.178Z,102363.84
2023-04-02T15:05:43.629Z,102368.09
2023-04-02T15:08:17.920Z,102371.47
2023-04-02T15:11:09.626Z,102374.00
2023-04-02T15:13:45.866Z,102378.63
2023-04-02T15:16:19.080Z,102376.72
2023-04-02T15:18:52.558Z,102369.25
2023-04-02T15:21:23.200Z,102386.44
2023-04-02T15:24:13.295Z,102373.75
2023-04-02T15:26:54.060Z,102365.13
2023-04-02T15:29:29.639Z,102368.66
2023-04-02T15:32:12.184Z,102368.94
2023-04-02T15:34:51.701Z,102372.63
2023-04-02T15:37:30.786Z,102374.88
2023-04-02T15:40:17.233Z,102379.00
2023-04-02T15:43:28.618Z,102379.44
2023-04-02T15:46:15.890Z,102393.81
2023-04-02T15:49:09.036Z,102377.84
2023-04-02T15:51:43.484Z,102386.19
2023-04-02T15:54:44.543Z,102397.00
2023-04-02T15:57:42.269Z,102392.47
2023-04-02T16:00:19.678Z,102395.47
2023-04-02T16:03:06.959Z,102390.63
2023-04-02T16:05:43.369Z,102400.13
2023-04-02T16:08:17.966Z,102404.81
2023-04-02T16:10:46.548Z,102402.13
2023-04-02T16:13:19.637Z,102409.31
2023-04-02T16:15:52.961Z,102399.84
2023-04-02T16:18:38.146Z,102416.34
2023-04-02T16:21:07.446Z,102422.09
2023-04-02T16:23:38.156Z,102426.22
2023-04-02T16:26:12.993Z,102429.03
2023-04-02T16:29:21.382Z,102432.59
2023-04-02T16:32:19.886Z,102428.06
2023-04-02T16:38:22.562Z,102424.06
2023-04-02T16:41:10.326Z,102434.16
2023-04-02T16:43:59.828Z,102447.00
2023-04-02T16:46:46.976Z,102460.38
2023-04-02T16:49:26.709Z,102454.91
2023-04-02T16:52:13.708Z,102454.81
2023-04-02T16:55:23.469Z,102464.25
2023-04-02T16:58:20.779Z,102463.06
2023-04-02T17:01:18.561Z,102465.03
2023-04-02T17:04:01.480Z,102468.88
2023-04-02T17:06:43.389Z,102471.34
2023-04-02T17:09:28.441Z,102471.09
2023-04-02T17:12:04.487Z,102477.81
2023-04-02T17:14:48.592Z,102484.78
2023-04-02T17:17:17.573Z,102484.34
2023-04-02T17:19:47.549Z,102490.59
2023-04-02T17:22:21.386Z,102497.03
2023-04-02T17:24:57.064Z,102499.34
2023-04-02T17:27:32.234Z,102506.81
2023-04-02T17:30:22.630Z,102512.03
2023-04-02T17:32:51.129Z,102520.59
2023-04-02T17:35:41.016Z,102514.03
2023-04-02T17:38:38.649Z,102512.38
2023-04-02T17:41:31.204Z,102525.59
2023-04-02T17:44:02.293Z,102532.44
2023-04-02T17:46:44.761Z,102520.94
2023-04-02T17:49:13.134Z,102533.72
2023-04-02T17:52:20.351Z,102534.16
2023-04-02T17:54:57.678Z,102546.22
2023-04-02T17:57:37.851Z,102541.66
2023-04-02T18:00:40.390Z,102549.00
2023-04-02T18:03:34.672Z,102557.84
2023-04-02T18:06:31.828Z,102558.78
2023-04-02T18:09:15.576Z,102561.09
2023-04-02T18:12:10.233Z,102573.63
2023-04-02T18:15:05.152Z,102573.72
2023-04-02T18:18:16.513Z,102587.00
2023-04-02T18:20:53.577Z,102581.47
2023-04-02T18:23:46.895Z,102581.13
2023-04-02T18:26:27.841Z,102584.63
2023-04-02T18:29:40.382Z,102591.00
2023-04-02T18:32:31.476Z,102595.16
2023-04-02T18:35:37.266Z,102610.00
2023-04-02T18:38:31.326Z,102616.28
2023-04-02T18:41:11.683Z,102618.28
2023-04-02T18:43:43.034Z,102621.50
2023-04-02T18:46:19.358Z,102618.97
2023-04-02T18:48:56.657Z,102630.44
2023-04-02T18:51:28.238Z,102633.91
2023-04-02T18:54:08.499Z,102638.94
2023-04-02T18:56:38.956Z,102643.19
2023-04-02T18:59:35.024Z,102650.47
2023-04-02T19:02:33.094Z,102644.09
2023-04-02T19:05:16.771Z,102659.00
2023-04-02T19:07:47.147Z,102652.72
2023-04-02T19:10:37.170Z,102661.06
2023-04-02T19:13:15.874Z,102672.94
2023-04-02T19:16:02.792Z,102676.69
2023-04-02T19:18:55.740Z,102677.75
2023-04-02T19:22:01.487Z,102682.09
2023-04-02T19:24:29.874Z,102689.34
2023-04-02T19:27:32.704Z,102679.31
2023-04-02T19:30:44.447Z,102679.59
2023-04-02T19:33:31.240Z,102687.78
2023-04-02T19:36:19.491Z,102685.50
2023-04-02T19:38:56.924Z,102680.22
2023-04-02T19:41:41.382Z,102686.34
2023-04-02T19:44:13.352Z,102684.66
2023-04-02T19:46:42.919Z,102683.47
2023-04-02T19:49:16.937Z,102682.22
2023-04-02T19:51:45.682Z,102686.28
2023-04-02T19:54:14.544Z,102690.25
2023-04-02T19:56:43.243Z,102691.63
2023-04-02T19:59:18.067Z,102694.44
2023-04-02T20:01:47.331Z,102692.03
2023-04-02T20:04:15.950Z,102694.19
2023-04-02T20:06:44.413Z,102691.44
2023-04-02T20:09:12.799Z,102690.69
2023-04-02T20:11:41.576Z,102691.03
2023-04-02T20:14:10.053Z,102690.34
2023-04-02T20:16:38.711Z,102700.72
2023-04-02T20:19:07.245Z,102701.31
2023-04-02T20:21:38.445Z,102705.84
2023-04-02T20:24:07.866Z,102705.97
2023-04-02T20:26:36.540Z,102718.22
2023-04-02T20:29:05.057Z,102715.53
2023-04-02T20:31:34.003Z,102721.66
2023-04-02T20:34:05.429Z,102730.44
2023-04-02T20:36:34.387Z,102731.84
2023-04-02T20:39:03.786Z,102728.56
2023-04-02T20:41:32.324Z,102726.38
2023-04-02T20:44:00.985Z,102730.41
2023-04-02T20:46:29.472Z,102723.00
2023-04-02T20:48:57.898Z,102722.88
2023-04-02T20:51:26.416Z,102736.88
2023-04-02T20:53:55.284Z,102732.97
2023-04-02T20:56:24.101Z,102727.75
2023-04-02T20:58:52.777Z,102734.47
2023-04-02T21:01:24.110Z,102738.94
2023-04-02T21:03:58.522Z,102744.56
2023-04-02T21:06:29.869Z,102746.41
2023-04-02T21:08:58.608Z,102753.28
2023-04-02T21:11:27.058Z,102747.16
2023-04-02T21:13:55.916Z,102746.44
2023-04-02T21:16:29.638Z,102751.59
2023-04-02T21:19:01.306Z,102763.91
2023-04-02T21:21:29.921Z,102755.84
2023-04-02T21:24:04.327Z,102760.72
2023-04-02T21:26:35.924Z,102770.47
2023-04-02T21:29:05.447Z,102764.25
2023-04-02T21:31:37.195Z,102767.91
2023-04-02T21:34:06.818Z,102771.00
2023-04-02T21:36:37.564Z,102776.72
2023-04-02T21:39:08.909Z,102780.25
2023-04-02T21:41:40.315Z,102775.25
2023-04-02T21:44:12.926Z,102779.53
2023-04-02T21:46:42.831Z,102777.09
2023-04-02T21:49:17.360Z,102779.78
2023-04-02T21:51:47.100Z,102773.91
2023-04-02T21:54:16.256Z,102778.16
2023-04-02T21:56:46.455Z,102776.31
2023-04-02T21:59:16.663Z,102778.00
2023-04-02T22:01:50.285Z,102785.34
2023-04-02T22:04:23.889Z,102776.84
2023-04-02T22:06:52.932Z,102776.09
2023-04-02T22:09:24.134Z,102776.34
2023-04-02T22:11:59.183Z,102778.53
2023-04-02T22:14:28.488Z,102785.13
2023-04-02T22:16:58.781Z,102780.72
2023-04-02T22:19:27.684Z,102786.03
2023-04-02T22:21:56.750Z,102787.88
2023-04-02T22:24:25.611Z,102784.03
2023-04-02T22:26:54.114Z,102781.25
2023-04-02T22:29:22.572Z,102784.53
2023-04-02T22:31:51.044Z,102788.91
2023-04-02T22:34:19.504Z,102787.22
2023-04-02T22:36:48.160Z,102789.81
2023-04-02T22:39:17.071Z,102792.50
2023-04-02T22:41:45.730Z,102787.59
2023-04-02T22:44:16.357Z,102790.06
2023-04-02T22:46:44.941Z,102797.41
2023-04-02T22:49:18.865Z,102790.88
2023-04-02T22:51:47.422Z,102790.75
2023-04-02T22:54:16.115Z,102787.59
2023-04-02T22:56:44.486Z,102792.16
2023-04-02T22:59:13.151Z,102803.06
2023-04-02T23:01:41.958Z,102797.53
2023-04-02T23:04:10.446Z,102801.63
2023-04-02T23:06:38.900Z,102796.53
2023-04-02T23:09:07.476Z,102803.53
2023-04-02T23:11:36.273Z,102800.69
2023-04-02T23:14:04.704Z,102807.34
2023-04-02T23:16:33.315Z,102810.44
2023-04-02T23:19:01.903Z,102805.56
2023-04-02T23:21:30.291Z,102803.50
2023-04-02T23:23:59.593Z,102812.44
2023-04-02T23:26:30.603Z,102813.41
2023-04-02T23:29:00.448Z,102813.94
2023-04-02T23:31:29.019Z,102807.91
2023-04-02T23:33:58.039Z,102811.03
2023-04-02T23:36:34.411Z,102802.53
2023-04-02T23:39:09.311Z,102813.25
2023-04-02T23:41:40.079Z,102811.19
2023-04-02T23:44:09.398Z,102815.84
2023-04-02T23:46:37.906Z,102812.94
2023-04-02T23:49:06.437Z,102814.84
2023-04-02T23:51:34.947Z,102815.16
2023-04-02T23:54:03.570Z,102816.03
2023-04-02T23:56:32.048Z,102809.41
2023-04-02T23:59:00.507Z,102807.72
